Time;durP1;ratioP1;P1;durP2;ratioP2;P2;SDS_P1;SDS_P2;PMS_P1;PMS_P2;Temp;Humidity;BMP_temperature;BMP_pressure;BME280_temperature;BME280_humidity;BME280_pressure;Samples;Min_cycle;Max_cycle;Signal;HPM_P1;HPM_P2
2022/07/19 00:00:36;;;;;;;;;;;;;;;18.68;61.37;100650.00;5097815;28;1353;-95
2022/07/19 00:03:02;;;;;;;;;;;;;;;18.68;61.48;100662.78;5108915;28;1345;-94
2022/07/19 00:05:31;;;;;;;;;;;;;;;18.67;61.13;100655.72;5114828;28;1293;-96
2022/07/19 00:07:58;;;;;;;;;;;;;;;18.66;61.18;100651.34;5115085;28;1190;-95
2022/07/19 00:10:25;;;;;;;;;;;;;;;18.66;61.23;100643.16;5122796;28;2213;-94
2022/07/19 00:12:51;;;;;;;;;;;;;;;18.65;61.43;100626.00;5114454;28;1287;-94
2022/07/19 00:15:18;;;;;;;;;;;;;;;18.63;61.51;100619.97;5114438;28;1977;-95
2022/07/19 00:17:44;;;;;;;;;;;;;;;18.65;61.14;100630.59;5114563;28;1229;-94
2022/07/19 00:20:11;;;;;;;;;;;;;;;18.63;61.45;100621.91;5117952;28;2758;-94
2022/07/19 00:22:37;;;;;;;;;;;;;;;18.63;61.42;100628.16;5117919;28;1193;-94
2022/07/19 00:25:04;;;;;;;;;;;;;;;18.61;61.20;100638.50;5099304;28;1975;-94
2022/07/19 00:27:31;;;;;;;;;;;;;;;18.61;61.38;100650.22;5097511;28;1286;-94
2022/07/19 00:29:57;;;;;;;;;;;;;;;18.61;61.33;100661.16;5103018;28;2320;-95
2022/07/19 00:32:24;;;;;;;;;;;;;;;18.59;61.42;100657.88;5109346;28;1316;-95
2022/07/19 00:34:50;;;;;;;;;;;;;;;18.60;61.22;100675.06;5097417;28;1976;-94
2022/07/19 00:37:17;;;;;;;;;;;;;;;18.58;61.28;100674.50;5097259;28;1268;-95
2022/07/19 00:39:43;;;;;;;;;;;;;;;18.57;61.46;100676.44;5113805;28;2022;-94
2022/07/19 00:42:10;;;;;;;;;;;;;;;18.57;61.30;100681.06;5117926;28;1174;-95
2022/07/19 00:44:36;;;;;;;;;;;;;;;18.56;61.19;100676.69;5117773;28;1213;-94
2022/07/19 00:47:03;;;;;;;;;;;;;;;18.56;61.33;100671.22;5118125;28;1316;-94
2022/07/19 00:49:29;;;;;;;;;;;;;;;18.55;61.32;100680.50;5118042;28;1280;-95
2022/07/19 00:51:56;;;;;;;;;;;;;;;18.54;61.12;100679.69;5117607;28;1301;-95
2022/07/19 00:54:23;;;;;;;;;;;;;;;18.53;61.06;100677.22;5101848;28;1978;-94
2022/07/19 00:56:50;;;;;;;;;;;;;;;18.52;61.19;100681.03;5113899;28;1178;-94
2022/07/19 00:59:16;;;;;;;;;;;;;;;18.51;61.00;100682.97;5117801;28;1801;-93
2022/07/19 01:01:43;;;;;;;;;;;;;;;18.50;61.25;100681.34;5114422;28;1193;-94
2022/07/19 01:04:10;;;;;;;;;;;;;;;18.50;61.10;100685.94;5113746;28;1474;-94
2022/07/19 01:06:36;;;;;;;;;;;;;;;18.50;61.15;100683.22;5117856;27;1287;-95
2022/07/19 01:09:03;;;;;;;;;;;;;;;18.48;60.98;100683.50;5106092;27;1975;-95
2022/07/19 01:11:29;;;;;;;;;;;;;;;18.47;61.19;100690.06;5121486;27;1276;-95
2022/07/19 01:13:56;;;;;;;;;;;;;;;18.47;61.22;100690.06;5110227;28;1910;-95
2022/07/19 01:16:23;;;;;;;;;;;;;;;18.46;61.18;100691.13;5116975;27;1261;-94
2022/07/19 01:18:50;;;;;;;;;;;;;;;18.46;61.15;100693.03;5114403;28;2453;-94
2022/07/19 01:21:17;;;;;;;;;;;;;;;18.44;61.23;100692.47;5100926;28;1203;-95
2022/07/19 01:23:43;;;;;;;;;;;;;;;18.44;60.83;100692.47;5113391;27;1852;-95
2022/07/19 01:26:10;;;;;;;;;;;;;;;18.42;61.06;100687.31;5117797;27;1832;-96
2022/07/19 01:28:37;;;;;;;;;;;;;;;18.42;61.08;100692.75;5113273;27;1666;-95
2022/07/19 01:31:03;;;;;;;;;;;;;;;18.42;61.09;100705.56;5108293;27;1340;-95
2022/07/19 01:33:30;;;;;;;;;;;;;;;18.41;60.90;100710.19;5120606;27;1870;-94
2022/07/19 01:35:56;;;;;;;;;;;;;;;18.39;60.86;100709.66;5112040;27;4838;-95
2022/07/19 01:38:23;;;;;;;;;;;;;;;18.39;60.92;100712.38;5113730;27;2034;-95
2022/07/19 01:40:49;;;;;;;;;;;;;;;18.38;61.14;100714.28;5100480;28;1293;-94
2022/07/19 01:43:16;;;;;;;;;;;;;;;18.36;61.00;100707.47;5102074;27;1416;-95
2022/07/19 01:45:42;;;;;;;;;;;;;;;18.36;61.25;100704.75;5119755;27;1576;-95
2022/07/19 01:48:09;;;;;;;;;;;;;;;18.35;60.88;100703.94;5117987;27;1598;-95
2022/07/19 01:50:35;;;;;;;;;;;;;;;18.34;60.89;100705.00;5115151;28;1918;-95
2022/07/19 01:53:02;;;;;;;;;;;;;;;18.33;61.06;100713.44;5113137;27;1924;-94
2022/07/19 01:55:28;;;;;;;;;;;;;;;18.33;61.05;100713.44;5107960;28;1906;-95
2022/07/19 01:57:55;;;;;;;;;;;;;;;18.32;60.93;100714.53;5101019;28;1486;-95
2022/07/19 02:00:21;;;;;;;;;;;;;;;18.31;61.04;100715.63;5096468;28;1424;-95
2022/07/19 02:02:48;;;;;;;;;;;;;;;18.30;61.09;100712.06;5102048;28;1421;-95
2022/07/19 02:05:14;;;;;;;;;;;;;;;18.30;61.05;100711.25;5106443;28;2374;-95
2022/07/19 02:07:41;;;;;;;;;;;;;;;18.28;60.98;100711.53;5106794;28;2122;-95
2022/07/19 02:10:08;;;;;;;;;;;;;;;18.27;60.99;100711.81;5100381;28;1537;-94
2022/07/19 02:12:34;;;;;;;;;;;;;;;18.26;60.98;100710.94;5096289;28;1170;-95
2022/07/19 02:15:01;;;;;;;;;;;;;;;18.25;61.04;100713.97;5095827;28;1910;-95
2022/07/19 02:17:27;;;;;;;;;;;;;;;18.24;60.90;100715.88;5104923;28;1589;-95
2022/07/19 02:19:54;;;;;;;;;;;;;;;18.24;61.00;100723.25;5095774;28;1213;-95
2022/07/19 02:22:20;;;;;;;;;;;;;;;18.23;60.89;100721.56;5100714;28;1785;-94
2022/07/19 02:24:47;;;;;;;;;;;;;;;18.21;61.08;100724.59;5113862;28;1528;-96
2022/07/19 02:27:13;;;;;;;;;;;;;;;18.20;60.92;100735.75;5116308;28;1432;-95
2022/07/19 02:29:40;;;;;;;;;;;;;;;18.21;61.04;100737.41;5115453;28;1842;-95
2022/07/19 02:32:06;;;;;;;;;;;;;;;18.19;60.80;100736.84;5116287;28;1309;-95
2022/07/19 02:34:33;;;;;;;;;;;;;;;18.17;60.82;100743.34;5115838;28;1969;-95
2022/07/19 02:36:59;;;;;;;;;;;;;;;18.16;61.06;100746.38;5110733;28;1897;-95
2022/07/19 02:39:26;;;;;;;;;;;;;;;18.15;60.82;100742.81;5117281;28;1193;-95
2022/07/19 02:41:53;;;;;;;;;;;;;;;18.14;61.08;100741.16;5111111;27;1873;-95
2022/07/19 02:44:19;;;;;;;;;;;;;;;18.13;60.95;100739.53;5115771;28;1408;-94
2022/07/19 02:46:46;;;;;;;;;;;;;;;18.13;60.92;100738.72;5116255;28;1399;-94
2022/07/19 02:49:12;;;;;;;;;;;;;;;18.11;61.04;100738.97;5115825;28;1189;-95
2022/07/19 02:51:39;;;;;;;;;;;;;;;18.11;60.92;100735.44;5114278;28;1908;-95
2022/07/19 02:54:06;;;;;;;;;;;;;;;18.10;60.88;100740.06;5115993;28;1181;-94
2022/07/19 02:56:32;;;;;;;;;;;;;;;18.08;61.01;100738.69;5094936;28;2255;-95
2022/07/19 02:58:59;;;;;;;;;;;;;;;18.07;61.06;100735.16;5100498;28;1182;-95
2022/07/19 03:01:26;;;;;;;;;;;;;;;18.06;60.97;100738.97;5115421;28;1202;-95
2022/07/19 03:03:52;;;;;;;;;;;;;;;18.04;60.96;100741.13;5115507;28;1754;-95
2022/07/19 03:06:19;;;;;;;;;;;;;;;18.04;60.97;100746.56;5112764;28;2011;-95
2022/07/19 03:08:45;;;;;;;;;;;;;;;18.02;60.77;100745.19;5115693;28;1221;-95
2022/07/19 03:11:12;;;;;;;;;;;;;;;18.01;60.77;100741.66;5115864;28;1313;-94
2022/07/19 03:13:38;;;;;;;;;;;;;;;18.01;60.75;100743.56;5112917;28;1186;-94
2022/07/19 03:16:05;;;;;;;;;;;;;;;18.02;60.72;100735.09;5095892;28;1967;-95
2022/07/19 03:18:32;;;;;;;;;;;;;;;18.00;60.85;100742.75;5113925;28;1198;-95
2022/07/19 03:20:59;;;;;;;;;;;;;;;17.99;60.88;100741.09;5106310;28;1868;-95
2022/07/19 03:23:25;;;;;;;;;;;;;;;17.97;60.67;100751.47;5113377;28;1868;-94
2022/07/19 03:25:52;;;;;;;;;;;;;;;17.97;60.93;100756.91;5111554;28;1649;-95
2022/07/19 03:28:18;;;;;;;;;;;;;;;17.96;60.67;100760.69;5107518;28;1193;-94
2022/07/19 03:30:45;;;;;;;;;;;;;;;17.95;60.72;100767.25;5110780;28;1261;-95
2022/07/19 03:33:15;;;;;;;;;;;;;;;17.94;60.67;100760.13;5115031;28;1214;-95
2022/07/19 03:35:42;;;;;;;;;;;;;;;17.94;60.87;100762.84;5107056;28;1936;-95
2022/07/19 03:38:08;;;;;;;;;;;;;;;17.92;60.68;100765.03;5094631;28;1189;-94
2022/07/19 03:40:35;;;;;;;;;;;;;;;17.90;60.71;100761.75;5094558;28;1317;-94
2022/07/19 03:43:01;;;;;;;;;;;;;;;17.90;60.61;100769.91;5111491;28;1328;-94
2022/07/19 03:45:28;;;;;;;;;;;;;;;17.90;60.74;100775.38;5115010;28;1514;-94
2022/07/19 03:47:54;;;;;;;;;;;;;;;17.88;60.66;100770.22;5114689;28;1287;-94
2022/07/19 03:50:21;;;;;;;;;;;;;;;17.87;60.83;100782.16;5107230;28;1951;-94
2022/07/19 03:52:47;;;;;;;;;;;;;;;17.87;60.53;100779.44;5094792;28;1457;-94
2022/07/19 03:55:14;;;;;;;;;;;;;;;17.85;60.51;100776.19;5093939;28;2658;-94
2022/07/19 03:57:41;;;;;;;;;;;;;;;17.85;60.74;100778.06;5100407;28;1274;-94
2022/07/19 04:00:08;;;;;;;;;;;;;;;17.83;60.60;100775.63;5113714;28;1821;-94
2022/07/19 04:02:34;;;;;;;;;;;;;;;17.83;60.57;100778.34;5114141;28;1253;-94
2022/07/19 04:05:01;;;;;;;;;;;;;;;17.82;60.56;100784.84;5111954;28;1769;-94
2022/07/19 04:07:27;;;;;;;;;;;;;;;17.80;60.50;100787.03;5099509;28;5207;-93
2022/07/19 04:09:54;;;;;;;;;;;;;;;17.79;60.66;100793.53;5094201;28;2547;-94
2022/07/19 04:12:20;;;;;;;;;;;;;;;17.79;60.53;100795.44;5094475;28;1197;-94
2022/07/19 04:14:48;;;;;;;;;;;;;;;17.77;60.56;100798.44;5094279;28;2244;-94
2022/07/19 04:17:17;;;;;;;;;;;;;;;17.77;60.55;100789.44;5099700;28;1481;-94
2022/07/19 04:19:43;;;;;;;;;;;;;;;17.75;60.77;100788.88;5103781;28;2234;-94
2022/07/19 04:22:10;;;;;;;;;;;;;;;17.74;60.63;100779.88;5094575;28;1749;-93
2022/07/19 04:24:36;;;;;;;;;;;;;;;17.72;60.78;100779.31;5111560;28;1198;-94
2022/07/19 04:27:03;;;;;;;;;;;;;;;17.73;60.75;100782.84;5113460;28;1694;-94
2022/07/19 04:29:30;;;;;;;;;;;;;;;17.70;60.64;100787.72;5114100;28;1249;-94
2022/07/19 04:31:56;;;;;;;;;;;;;;;17.70;60.51;100785.00;5114576;28;1202;-94
2022/07/19 04:34:23;;;;;;;;;;;;;;;17.68;60.56;100783.66;5114985;28;1355;-94
2022/07/19 04:36:49;;;;;;;;;;;;;;;17.69;60.68;100793.44;5103102;28;2990;-95
2022/07/19 04:39:16;;;;;;;;;;;;;;;17.67;60.76;100793.69;5094771;28;2166;-94
2022/07/19 04:41:42;;;;;;;;;;;;;;;17.67;60.55;100798.34;5111402;28;1847;-94
2022/07/19 04:44:09;;;;;;;;;;;;;;;17.65;60.55;100801.34;5119648;28;1235;-94
2022/07/19 04:46:35;;;;;;;;;;;;;;;17.67;60.56;100803.78;5118724;28;1346;-94
2022/07/19 04:49:02;;;;;;;;;;;;;;;17.67;60.72;100809.22;5118247;28;2570;-94
2022/07/19 04:51:29;;;;;;;;;;;;;;;17.66;60.44;100810.31;5105369;28;1924;-94
2022/07/19 04:53:55;;;;;;;;;;;;;;;17.65;60.62;100809.50;5097738;28;1409;-94
2022/07/19 04:56:22;;;;;;;;;;;;;;;17.66;60.63;100810.31;5097526;28;1910;-96
2022/07/19 04:58:48;;;;;;;;;;;;;;;17.65;60.51;100812.22;5097672;28;1269;-94
2022/07/19 05:01:15;;;;;;;;;;;;;;;17.64;60.39;100802.41;5097686;28;1300;-94
2022/07/19 05:03:41;;;;;;;;;;;;;;;17.64;60.27;100796.94;5097486;28;1190;-94
2022/07/19 05:06:08;;;;;;;;;;;;;;;17.63;60.38;100800.75;5109379;28;1770;-94
2022/07/19 05:08:35;;;;;;;;;;;;;;;17.62;60.41;100799.13;5103576;28;2515;-94
2022/07/19 05:11:01;;;;;;;;;;;;;;;17.63;60.30;100798.03;5115354;28;2543;-94
2022/07/19 05:13:28;;;;;;;;;;;;;;;17.63;60.52;100795.31;5117906;28;1107;-94
2022/07/19 05:15:54;;;;;;;;;;;;;;;17.62;60.39;100795.59;5117561;28;1910;-96
2022/07/19 05:18:21;;;;;;;;;;;;;;;17.62;60.49;100803.75;5106219;28;2329;-95
2022/07/19 05:20:47;;;;;;;;;;;;;;;17.62;60.33;100798.31;5111169;28;2082;-94
2022/07/19 05:23:14;;;;;;;;;;;;;;;17.62;60.34;100790.16;5117431;28;1193;-94
2022/07/19 05:25:41;;;;;;;;;;;;;;;17.63;60.34;100799.94;5117450;28;1553;-94
2022/07/19 05:28:08;;;;;;;;;;;;;;;17.60;60.26;100779.50;5111698;28;1537;-94
2022/07/19 05:30:34;;;;;;;;;;;;;;;17.61;60.17;100786.56;5117392;28;1221;-94
2022/07/19 05:33:01;;;;;;;;;;;;;;;17.61;60.09;100792.03;5117769;28;1247;-95
2022/07/19 05:35:28;;;;;;;;;;;;;;;17.60;60.17;100787.66;5106058;28;2039;-95
2022/07/19 05:37:54;;;;;;;;;;;;;;;17.61;60.22;100783.03;5096810;28;1292;-95
2022/07/19 05:40:21;;;;;;;;;;;;;;;17.59;60.32;100777.03;5114725;28;1345;-95
2022/07/19 05:42:47;;;;;;;;;;;;;;;17.60;60.45;100778.69;5116953;28;1245;-95
2022/07/19 05:45:14;;;;;;;;;;;;;;;17.58;60.41;100784.38;5117168;28;1276;-95
2022/07/19 05:47:40;;;;;;;;;;;;;;;17.59;60.27;100782.47;5117112;28;1387;-95
2022/07/19 05:50:07;;;;;;;;;;;;;;;17.58;60.32;100783.56;5106258;28;1897;-94
2022/07/19 05:52:33;;;;;;;;;;;;;;;17.58;60.07;100792.53;5114493;28;1225;-95
2022/07/19 05:55:00;;;;;;;;;;;;;;;17.59;60.03;100804.25;5116301;28;1161;-95
2022/07/19 05:57:26;;;;;;;;;;;;;;;17.59;60.05;100806.97;5116830;28;1193;-95
2022/07/19 05:59:53;;;;;;;;;;;;;;;17.59;60.28;100821.44;5116189;28;1868;-94
2022/07/19 06:02:20;;;;;;;;;;;;;;;17.58;60.03;100810.78;5096509;28;2296;-95
2022/07/19 06:04:46;;;;;;;;;;;;;;;17.58;60.22;100813.50;5111574;28;1973;-95
2022/07/19 06:07:13;;;;;;;;;;;;;;;17.58;60.19;100808.88;5114384;28;1210;-95
2022/07/19 06:09:39;;;;;;;;;;;;;;;17.57;59.97;100815.41;5096325;28;1185;-95
2022/07/19 06:12:06;;;;;;;;;;;;;;;17.58;60.07;100825.22;5113563;28;1188;-95
2022/07/19 06:14:32;;;;;;;;;;;;;;;17.59;60.11;100817.88;5096027;28;1292;-95
2022/07/19 06:16:59;;;;;;;;;;;;;;;17.58;60.04;100825.22;5095615;28;1979;-95
2022/07/19 06:19:26;;;;;;;;;;;;;;;17.58;60.18;100813.50;5103371;28;1755;-94
2022/07/19 06:21:52;;;;;;;;;;;;;;;17.58;60.14;100819.78;5118479;28;1177;-95
2022/07/19 06:24:19;;;;;;;;;;;;;;;17.57;60.03;100811.88;5116392;28;1341;-94
2022/07/19 06:26:46;;;;;;;;;;;;;;;17.56;59.93;100811.06;5113092;28;1174;-94
2022/07/19 06:29:13;;;;;;;;;;;;;;;17.57;59.88;100806.44;5097190;28;984;-95
2022/07/19 06:31:39;;;;;;;;;;;;;;;17.57;59.98;100801.81;5095860;28;1194;-95
2022/07/19 06:34:06;;;;;;;;;;;;;;;17.57;59.79;100807.25;5114231;28;1353;-94
2022/07/19 06:36:32;;;;;;;;;;;;;;;17.58;59.91;100821.69;5101980;27;4926;-95
2022/07/19 06:38:59;;;;;;;;;;;;;;;17.57;59.88;100817.31;5102942;28;1189;-93
2022/07/19 06:41:25;;;;;;;;;;;;;;;17.57;59.81;100820.06;5096024;28;1258;-94
2022/07/19 06:43:52;;;;;;;;;;;;;;;17.58;59.95;100827.13;5095561;28;1292;-95
2022/07/19 06:46:18;;;;;;;;;;;;;;;17.57;59.93;100839.94;5113889;28;1314;-95
2022/07/19 06:48:45;;;;;;;;;;;;;;;17.56;59.90;100835.56;5115783;28;1600;-95
2022/07/19 06:51:11;;;;;;;;;;;;;;;17.56;59.81;100834.72;5096451;28;2051;-94
2022/07/19 06:53:38;;;;;;;;;;;;;;;17.57;59.78;100830.94;5094926;28;1687;-94
2022/07/19 06:56:05;;;;;;;;;;;;;;;17.57;59.81;100826.31;5109396;28;1976;-95
2022/07/19 06:58:31;;;;;;;;;;;;;;;17.58;59.69;100833.41;5128240;27;2360;-95
2022/07/19 07:01:00;;;;;;;;;;;;;;;17.58;59.78;100838.84;5119167;27;1321;-95
2022/07/19 07:03:27;;;;;;;;;;;;;;;17.57;59.83;100844.56;5119671;27;1671;-95
2022/07/19 07:05:54;;;;;;;;;;;;;;;17.58;59.90;100840.75;5104426;27;2392;-94
2022/07/19 07:08:21;;;;;;;;;;;;;;;17.58;59.63;100835.31;5112738;27;1420;-94
2022/07/19 07:10:47;;;;;;;;;;;;;;;17.58;59.74;100838.84;5103635;27;1411;-94
2022/07/19 07:13:14;;;;;;;;;;;;;;;17.59;59.65;100845.09;5099486;28;2298;-95
2022/07/19 07:15:42;;;;;;;;;;;;;;;17.59;59.59;100850.56;5112034;28;1980;-94
2022/07/19 07:18:09;;;;;;;;;;;;;;;17.59;59.63;100856.00;5098298;28;1350;-94
2022/07/19 07:20:35;;;;;;;;;;;;;;;17.59;59.63;100845.94;5108594;27;1849;-94
2022/07/19 07:23:02;;;;;;;;;;;;;;;17.59;59.67;100843.22;5105574;27;1987;-95
2022/07/19 07:25:28;;;;;;;;;;;;;;;17.60;59.50;100846.75;5113971;27;2144;-96
2022/07/19 07:27:55;;;;;;;;;;;;;;;17.60;59.70;100849.50;5111247;27;2106;-95
2022/07/19 07:30:21;;;;;;;;;;;;;;;17.60;59.54;100849.50;5101338;28;1747;-95
2022/07/19 07:32:48;;;;;;;;;;;;;;;17.60;59.67;100855.75;5109013;27;1198;-96
2022/07/19 07:35:14;;;;;;;;;;;;;;;17.60;59.51;100863.09;5105154;28;1730;-95
2022/07/19 07:37:41;;;;;;;;;;;;;;;17.61;59.46;100870.19;5116847;27;1913;-95
2022/07/19 07:40:07;;;;;;;;;;;;;;;17.61;59.51;100872.91;5118658;27;1259;-95
2022/07/19 07:42:34;;;;;;;;;;;;;;;17.62;59.46;100871.84;5118376;27;1277;-94
2022/07/19 07:45:01;;;;;;;;;;;;;;;17.61;59.63;100876.44;5115474;28;1994;-95
2022/07/19 07:47:27;;;;;;;;;;;;;;;17.63;59.38;100876.19;5116190;27;1880;-95
2022/07/19 07:49:54;;;;;;;;;;;;;;;17.62;59.56;100875.38;5115377;27;2047;-95
2022/07/19 07:52:20;;;;;;;;;;;;;;;17.62;59.42;100880.84;5118099;27;1182;-94
2022/07/19 07:54:48;;;;;;;;;;;;;;;17.62;59.26;100880.84;5103845;28;1828;-95
2022/07/19 07:57:15;;;;;;;;;;;;;;;17.63;59.48;100890.63;5094469;28;1905;-95
2022/07/19 07:59:42;;;;;;;;;;;;;;;17.64;59.52;100894.19;5113910;28;1198;-95
2022/07/19 08:02:08;;;;;;;;;;;;;;;17.64;59.53;100884.09;5115102;28;1220;-95
2022/07/19 08:04:35;;;;;;;;;;;;;;;17.64;59.41;100892.28;5106198;28;1983;-95
2022/07/19 08:07:01;;;;;;;;;;;;;;;17.66;59.48;100911.09;5094296;28;1288;-95
2022/07/19 08:09:28;;;;;;;;;;;;;;;17.65;59.35;100912.19;5094402;28;1198;-95
2022/07/19 08:11:54;;;;;;;;;;;;;;;17.66;59.41;100920.06;5094688;28;1187;-95
2022/07/19 08:14:21;;;;;;;;;;;;;;;17.66;59.46;100913.81;5100612;28;1849;-95
2022/07/19 08:16:47;;;;;;;;;;;;;;;17.66;59.32;100914.63;5095431;28;1981;-95
2022/07/19 08:19:14;;;;;;;;;;;;;;;17.67;59.36;100905.38;5100237;28;1641;-95
2022/07/19 08:21:40;;;;;;;;;;;;;;;17.67;59.62;100907.28;5102553;28;1884;-95
2022/07/19 08:24:07;;;;;;;;;;;;;;;17.67;59.41;100910.81;5123036;28;1293;-95
2022/07/19 08:26:33;;;;;;;;;;;;;;;17.67;59.42;100896.38;5127815;28;1162;-95
2022/07/19 08:29:00;;;;;;;;;;;;;;;17.67;59.64;100890.94;5118567;28;1954;-95
2022/07/19 08:31:27;;;;;;;;;;;;;;;17.67;59.41;100899.91;5118765;28;1317;-95
2022/07/19 08:33:53;;;;;;;;;;;;;;;17.68;59.42;100911.66;5119013;28;1458;-95
2022/07/19 08:36:20;;;;;;;;;;;;;;;17.69;59.36;100918.75;5100217;28;1897;-95
2022/07/19 08:38:47;;;;;;;;;;;;;;;17.68;59.46;100917.94;5098359;28;1227;-95
2022/07/19 08:41:13;;;;;;;;;;;;;;;17.70;59.68;100914.94;5098449;28;1202;-94
2022/07/19 08:43:39;;;;;;;;;;;;;;;17.70;59.57;100920.38;5098114;28;1893;-95
2022/07/19 08:46:07;;;;;;;;;;;;;;;17.70;59.59;100912.22;5098067;28;1357;-95
2022/07/19 08:48:34;;;;;;;;;;;;;;;17.70;59.38;100921.19;5098042;28;1582;-95
2022/07/19 08:51:01;;;;;;;;;;;;;;;17.70;59.46;100929.38;5107306;28;2222;-95
2022/07/19 08:53:27;;;;;;;;;;;;;;;17.71;59.45;100928.31;5118084;28;1249;-95
2022/07/19 08:55:54;;;;;;;;;;;;;;;17.74;59.66;100928.88;5113226;28;1917;-95
2022/07/19 08:58:20;;;;;;;;;;;;;;;17.73;59.47;100928.03;5104695;27;1335;-95
2022/07/19 09:00:46;;;;;;;;;;;;;;;17.74;59.50;100916.06;5122196;27;1158;-94
2022/07/19 09:03:13;;;;;;;;;;;;;;;17.74;59.50;100918.81;5121355;27;1279;-95
2022/07/19 09:05:39;;;;;;;;;;;;;;;17.75;59.42;100912.25;5118240;27;2552;-94
2022/07/19 09:08:06;;;;;;;;;;;;;;;17.75;59.63;100908.72;5112638;27;4992;-95
2022/07/19 09:10:32;;;;;;;;;;;;;;;17.76;59.56;100910.34;5121438;27;1193;-95
2022/07/19 09:12:59;;;;;;;;;;;;;;;17.75;59.45;100904.09;5110549;27;1913;-94
2022/07/19 09:15:25;;;;;;;;;;;;;;;17.76;59.78;100918.53;5110874;27;1478;-94
2022/07/19 09:17:52;;;;;;;;;;;;;;;17.77;59.54;100937.34;5121349;27;1910;-95
2022/07/19 09:20:19;;;;;;;;;;;;;;;17.78;59.51;100924.56;5102260;28;1846;-95
2022/07/19 09:22:45;;;;;;;;;;;;;;;17.78;59.51;100910.97;5100703;28;1288;-95
2022/07/19 09:25:12;;;;;;;;;;;;;;;17.79;59.44;100912.59;5120470;27;1556;-95
2022/07/19 09:27:43;;;;;;;;;;;;;;;17.79;59.58;100921.59;5119215;27;1854;-95
2022/07/19 09:30:09;;;;;;;;;;;;;;;17.79;59.61;100915.31;5120465;27;1345;-95
2022/07/19 09:32:36;;;;;;;;;;;;;;;17.80;59.51;100908.81;5109026;27;1964;-95
2022/07/19 09:35:02;;;;;;;;;;;;;;;17.82;59.66;100920.25;5120937;27;1319;-95
2022/07/19 09:37:29;;;;;;;;;;;;;;;17.81;59.67;100910.44;5114011;28;2542;-95
2022/07/19 09:39:55;;;;;;;;;;;;;;;17.81;59.54;100919.44;5104446;28;1708;-94
2022/07/19 09:42:22;;;;;;;;;;;;;;;17.82;59.53;100922.97;5119931;27;1722;-95
2022/07/19 09:44:48;;;;;;;;;;;;;;;17.84;59.68;100923.53;5119316;27;1522;-95
2022/07/19 09:47:15;;;;;;;;;;;;;;;17.84;59.66;100926.25;5117666;27;1962;-95
2022/07/19 09:49:42;;;;;;;;;;;;;;;17.85;59.88;100928.75;5120512;27;1293;-95
2022/07/19 09:52:08;;;;;;;;;;;;;;;17.86;59.82;100938.56;5120374;27;1254;-96
2022/07/19 09:54:35;;;;;;;;;;;;;;;17.86;59.59;100937.72;5120669;27;1302;-95
2022/07/19 09:57:01;;;;;;;;;;;;;;;17.87;59.55;100936.66;5116375;28;1906;-96
2022/07/19 09:59:28;;;;;;;;;;;;;;;17.88;59.52;100946.44;5106427;27;1907;-95
2022/07/19 10:01:55;;;;;;;;;;;;;;;17.88;59.85;100947.28;5118806;27;1789;-95
2022/07/19 10:04:21;;;;;;;;;;;;;;;17.89;59.77;100948.13;5102063;28;1991;-95
2022/07/19 10:06:48;;;;;;;;;;;;;;;17.90;59.57;100944.28;5117482;27;1783;-95
2022/07/19 10:09:14;;;;;;;;;;;;;;;17.91;59.70;100943.22;5120648;27;1201;-95
2022/07/19 10:11:41;;;;;;;;;;;;;;;17.91;59.66;100948.66;5119407;27;1786;-95
2022/07/19 10:14:08;;;;;;;;;;;;;;;17.92;59.84;100956.59;5119173;27;1793;-96
2022/07/19 10:16:35;;;;;;;;;;;;;;;17.94;59.87;100948.13;5119875;27;1971;-96
2022/07/19 10:19:01;;;;;;;;;;;;;;;17.95;59.90;100946.25;5106476;28;1904;-95
2022/07/19 10:21:28;;;;;;;;;;;;;;;17.94;59.77;100939.97;5100732;28;1832;-96
2022/07/19 10:23:54;;;;;;;;;;;;;;;17.96;59.81;100939.72;5102551;28;1311;-95
2022/07/19 10:26:21;;;;;;;;;;;;;;;17.97;59.90;100941.34;5099454;28;1336;-95
2022/07/19 10:28:47;;;;;;;;;;;;;;;17.97;59.72;100933.19;5099408;28;1296;-95
2022/07/19 10:31:14;;;;;;;;;;;;;;;17.97;59.64;100934.03;5107045;28;1873;-95
2022/07/19 10:33:40;;;;;;;;;;;;;;;17.99;59.87;100931.84;5110272;28;1918;-96
2022/07/19 10:36:07;;;;;;;;;;;;;;;18.00;59.90;100933.50;5127329;27;1522;-95
2022/07/19 10:38:34;;;;;;;;;;;;;;;18.01;59.90;100923.41;5119651;27;1983;-95
2022/07/19 10:41:00;;;;;;;;;;;;;;;18.02;59.93;100930.50;5139981;27;1326;-95
2022/07/19 10:43:27;;;;;;;;;;;;;;;18.03;59.81;100926.69;5140383;27;1222;-95
2022/07/19 10:45:54;;;;;;;;;;;;;;;18.03;59.84;100922.09;5116280;28;1365;-96
2022/07/19 10:48:21;;;;;;;;;;;;;;;18.04;59.80;100917.44;5115096;28;1940;-95
2022/07/19 10:50:47;;;;;;;;;;;;;;;18.06;59.81;100923.44;5116105;28;1270;-95
2022/07/19 10:53:14;;;;;;;;;;;;;;;18.07;59.85;100911.47;5116287;28;1123;-95
2022/07/19 10:55:41;;;;;;;;;;;;;;;18.07;59.91;100906.84;5099249;28;2595;-95
2022/07/19 10:58:07;;;;;;;;;;;;;;;18.07;59.77;100909.56;5098529;28;1971;-95
2022/07/19 11:00:34;;;;;;;;;;;;;;;18.09;60.15;100912.03;5098741;28;1289;-95
2022/07/19 11:03:00;;;;;;;;;;;;;;;18.10;60.09;100913.69;5104683;27;1770;-94
2022/07/19 11:05:27;;;;;;;;;;;;;;;18.11;60.10;100910.66;5108728;27;2150;-95
2022/07/19 11:07:53;;;;;;;;;;;;;;;18.12;60.03;100917.78;5115946;27;2040;-94
2022/07/19 11:10:20;;;;;;;;;;;;;;;18.13;60.13;100918.59;5119024;27;1182;-95
2022/07/19 11:12:46;;;;;;;;;;;;;;;18.14;59.87;100915.59;5114010;28;1789;-95
2022/07/19 11:15:13;;;;;;;;;;;;;;;18.15;59.89;100917.25;5119062;27;1406;-96
2022/07/19 11:17:40;;;;;;;;;;;;;;;18.16;60.14;100912.63;5111541;28;1914;-95
2022/07/19 11:20:07;;;;;;;;;;;;;;;18.17;60.22;100906.91;5118898;27;1178;-95
2022/07/19 11:22:33;;;;;;;;;;;;;;;18.19;59.84;100889.47;5118514;27;1277;-96
2022/07/19 11:25:00;;;;;;;;;;;;;;;18.19;60.18;100890.28;5118544;27;1225;-95
2022/07/19 11:27:26;;;;;;;;;;;;;;;18.21;60.23;100899.03;5116595;27;1862;-96
2022/07/19 11:29:53;;;;;;;;;;;;;;;18.21;59.97;100898.22;5115010;28;1669;-96
2022/07/19 11:32:20;;;;;;;;;;;;;;;18.23;60.31;100896.03;5098392;28;1503;-95
2022/07/19 11:34:46;;;;;;;;;;;;;;;18.24;60.24;100894.97;5115214;27;1680;-96
2022/07/19 11:37:13;;;;;;;;;;;;;;;18.25;60.08;100891.97;5118999;27;1973;-96
2022/07/19 11:39:39;;;;;;;;;;;;;;;18.25;60.20;100889.25;5103788;28;2040;-96
2022/07/19 11:42:06;;;;;;;;;;;;;;;18.26;60.24;100888.16;5097753;27;1701;-95
2022/07/19 11:44:32;;;;;;;;;;;;;;;18.27;60.23;100887.09;5117437;28;1857;-95
2022/07/19 11:46:59;;;;;;;;;;;;;;;18.29;60.05;100886.81;5116300;27;1802;-96
2022/07/19 11:49:26;;;;;;;;;;;;;;;18.30;60.16;100886.56;5114394;27;1829;-96
2022/07/19 11:51:52;;;;;;;;;;;;;;;18.30;60.29;100874.84;5118131;27;1256;-96
2022/07/19 11:54:19;;;;;;;;;;;;;;;18.31;60.29;100871.84;5114204;28;1305;-95
2022/07/19 11:56:46;;;;;;;;;;;;;;;18.34;60.30;100870.50;5098816;28;2015;-95
2022/07/19 11:59:12;;;;;;;;;;;;;;;18.34;60.41;100873.22;5138961;27;1318;-96
2022/07/19 12:01:39;;;;;;;;;;;;;;;18.35;60.44;100880.31;5138996;27;1140;-96
2022/07/19 12:04:05;;;;;;;;;;;;;;;18.37;60.16;100881.69;5100991;27;1935;-96
2022/07/19 12:06:32;;;;;;;;;;;;;;;18.38;60.37;100877.88;5098621;28;3087;-96
2022/07/19 12:08:59;;;;;;;;;;;;;;;18.41;60.22;100884.69;5106788;28;1804;-96
2022/07/19 12:11:27;;;;;;;;;;;;;;;18.41;60.14;100879.25;5117267;28;1194;-96
2022/07/19 12:13:54;;;;;;;;;;;;;;;18.42;60.18;100882.81;5115559;28;1200;-96
2022/07/19 12:16:21;;;;;;;;;;;;;;;18.43;60.22;100890.72;5097813;28;1540;-96
2022/07/19 12:18:48;;;;;;;;;;;;;;;18.45;60.25;100893.19;5111065;28;1909;-96
2022/07/19 12:21:14;;;;;;;;;;;;;;;18.45;60.28;100885.81;5114650;28;1155;-96
2022/07/19 12:23:41;;;;;;;;;;;;;;;18.46;60.29;100882.00;5114702;28;1296;-96
2022/07/19 12:26:07;;;;;;;;;;;;;;;18.48;60.53;100882.56;5114691;28;1340;-96
2022/07/19 12:28:35;;;;;;;;;;;;;;;18.50;60.30;100882.28;5101093;28;1904;-96
2022/07/19 12:31:01;;;;;;;;;;;;;;;18.50;60.66;100874.97;5099374;28;2460;-96
2022/07/19 12:33:28;;;;;;;;;;;;;;;18.52;60.41;100880.94;5097445;28;2035;-95
2022/07/19 12:35:54;;;;;;;;;;;;;;;18.54;60.76;100889.69;5101873;28;1951;-96
2022/07/19 12:38:21;;;;;;;;;;;;;;;18.55;60.25;100885.88;5106733;28;1910;-96
2022/07/19 12:40:49;;;;;;;;;;;;;;;18.57;60.25;100888.34;5097130;28;1767;-96
2022/07/19 12:43:16;;;;;;;;;;;;;;;18.59;60.49;100888.91;5097476;28;1179;-96